sensor_id;sensor_type;location;lat;lon;timestamp;pressure;altitude;pressure_sealevel;temperature;humidity
51781;BME280;37844;57.126;24.288;2023-02-13T00:02:10;102316.94;;;3.37;100.00
51781;BME280;37844;57.126;24.288;2023-02-13T00:04:36;102324.28;;;3.46;100.00
51781;BME280;37844;57.126;24.288;2023-02-13T00:07:01;102326.06;;;3.47;100.00
51781;BME280;37844;57.126;24.288;2023-02-13T00:09:26;102320.28;;;3.50;100.00
51781;BME280;37844;57.126;24.288;2023-02-13T00:11:52;102315.19;;;3.50;100.00
51781;BME280;37844;57.126;24.288;2023-02-13T00:14:17;102320.03;;;3.58;100.00
51781;BME280;37844;57.126;24.288;2023-02-13T00:16:42;102320.69;;;3.56;100.00
51781;BME280;37844;57.126;24.288;2023-02-13T00:19:08;102309.84;;;3.58;100.00
51781;BME280;37844;57.126;24.288;2023-02-13T00:21:33;102323.34;;;3.57;100.00
51781;BME280;37844;57.126;24.288;2023-02-13T00:23:58;102311.91;;;3.64;100.00
51781;BME280;37844;57.126;24.288;2023-02-13T00:26:24;102306.22;;;3.68;100.00
51781;BME280;37844;57.126;24.288;2023-02-13T00:28:49;102298.47;;;3.67;100.00
51781;BME280;37844;57.126;24.288;2023-02-13T00:31:18;102297.19;;;3.73;100.00
51781;BME280;37844;57.126;24.288;2023-02-13T00:33:44;102292.19;;;3.75;100.00
51781;BME280;37844;57.126;24.288;2023-02-13T00:36:11;102283.72;;;3.63;100.00
51781;BME280;37844;57.126;24.288;2023-02-13T00:38:37;102294.53;;;3.58;100.00
51781;BME280;37844;57.126;24.288;2023-02-13T00:41:03;102297.47;;;3.65;100.00
51781;BME280;37844;57.126;24.288;2023-02-13T00:43:29;102298.75;;;3.71;100.00
51781;BME280;37844;57.126;24.288;2023-02-13T00:45:54;102296.50;;;3.76;100.00
51781;BME280;37844;57.126;24.288;2023-02-13T00:48:20;102293.41;;;3.80;100.00
51781;BME280;37844;57.126;24.288;2023-02-13T00:50:45;102280.53;;;3.78;100.00
51781;BME280;37844;57.126;24.288;2023-02-13T00:53:11;102270.13;;;3.75;100.00
51781;BME280;37844;57.126;24.288;2023-02-13T00:55:36;102269.53;;;3.66;100.00
51781;BME280;37844;57.126;24.288;2023-02-13T00:58:01;102270.41;;;3.67;100.00
51781;BME280;37844;57.126;24.288;2023-02-13T01:00:27;102266.56;;;3.60;100.00
51781;BME280;37844;57.126;24.288;2023-02-13T01:02:52;102266.31;;;3.69;100.00
51781;BME280;37844;57.126;24.288;2023-02-13T01:05:18;102261.88;;;3.79;100.00
51781;BME280;37844;57.126;24.288;2023-02-13T01:07:43;102256.50;;;3.88;100.00
51781;BME280;37844;57.126;24.288;2023-02-13T01:10:08;102253.75;;;3.85;100.00
51781;BME280;37844;57.126;24.288;2023-02-13T01:12:34;102248.72;;;3.87;100.00
51781;BME280;37844;57.126;24.288;2023-02-13T01:14:59;102234.63;;;3.92;100.00
51781;BME280;37844;57.126;24.288;2023-02-13T01:17:24;102229.72;;;3.95;100.00
51781;BME280;37844;57.126;24.288;2023-02-13T01:19:50;102240.28;;;4.01;100.00
51781;BME280;37844;57.126;24.288;2023-02-13T01:22:15;102249.34;;;4.09;100.00
51781;BME280;37844;57.126;24.288;2023-02-13T01:24:40;102241.50;;;4.06;100.00
51781;BME280;37844;57.126;24.288;2023-02-13T01:27:06;102246.50;;;4.04;100.00
51781;BME280;37844;57.126;24.288;2023-02-13T01:29:31;102252.47;;;4.05;100.00
51781;BME280;37844;57.126;24.288;2023-02-13T01:31:56;102248.94;;;4.03;100.00
51781;BME280;37844;57.126;24.288;2023-02-13T01:34:22;102243.25;;;4.07;100.00
51781;BME280;37844;57.126;24.288;2023-02-13T01:36:47;102245.50;;;4.02;100.00
51781;BME280;37844;57.126;24.288;2023-02-13T01:39:12;102245.91;;;4.09;100.00
51781;BME280;37844;57.126;24.288;2023-02-13T01:41:38;102250.78;;;4.06;100.00
51781;BME280;37844;57.126;24.288;2023-02-13T01:44:43;102251.00;;;4.09;100.00
51781;BME280;37844;57.126;24.288;2023-02-13T01:46:48;102249.03;;;4.04;100.00
51781;BME280;37844;57.126;24.288;2023-02-13T01:49:15;102249.16;;;4.06;100.00
51781;BME280;37844;57.126;24.288;2023-02-13T01:51:42;102250.72;;;3.91;100.00
51781;BME280;37844;57.126;24.288;2023-02-13T01:54:12;102254.75;;;3.87;100.00
51781;BME280;37844;57.126;24.288;2023-02-13T01:56:42;102253.56;;;3.95;100.00
51781;BME280;37844;57.126;24.288;2023-02-13T01:59:11;102251.50;;;3.90;100.00
51781;BME280;37844;57.126;24.288;2023-02-13T02:01:37;102255.34;;;3.96;100.00
51781;BME280;37844;57.126;24.288;2023-02-13T02:06:29;102245.13;;;3.96;100.00
51781;BME280;37844;57.126;24.288;2023-02-13T02:08:57;102242.78;;;3.99;100.00
51781;BME280;37844;57.126;24.288;2023-02-13T02:11:45;102230.88;;;4.00;100.00
51781;BME280;37844;57.126;24.288;2023-02-13T02:14:12;102192.13;;;3.79;100.00
51781;BME280;37844;57.126;24.288;2023-02-13T02:16:37;102242.84;;;4.01;100.00
51781;BME280;37844;57.126;24.288;2023-02-13T02:19:03;102246.00;;;3.97;100.00
51781;BME280;37844;57.126;24.288;2023-02-13T02:29:40;102238.34;;;3.83;100.00
51781;BME280;37844;57.126;24.288;2023-02-13T02:34:43;102237.06;;;3.77;100.00
51781;BME280;37844;57.126;24.288;2023-02-13T02:37:25;102239.00;;;3.68;100.00
51781;BME280;37844;57.126;24.288;2023-02-13T02:47:59;102256.22;;;3.70;100.00
51781;BME280;37844;57.126;24.288;2023-02-13T02:50:50;102254.44;;;3.69;100.00
51781;BME280;37844;57.126;24.288;2023-02-13T02:53:38;102259.72;;;3.59;100.00
51781;BME280;37844;57.126;24.288;2023-02-13T03:01:17;102253.84;;;3.73;100.00
51781;BME280;37844;57.126;24.288;2023-02-13T03:04:02;102258.16;;;3.74;100.00
51781;BME280;37844;57.126;24.288;2023-02-13T03:06:54;102253.66;;;3.70;100.00
51781;BME280;37844;57.126;24.288;2023-02-13T03:09:30;102255.41;;;3.71;100.00
51781;BME280;37844;57.126;24.288;2023-02-13T03:12:18;102243.84;;;3.76;100.00
51781;BME280;37844;57.126;24.288;2023-02-13T03:15:04;102240.31;;;3.74;100.00
51781;BME280;37844;57.126;24.288;2023-02-13T03:17:29;102248.56;;;3.70;100.00
51781;BME280;37844;57.126;24.288;2023-02-13T03:23:09;102237.75;;;3.74;100.00
51781;BME280;37844;57.126;24.288;2023-02-13T03:28:18;102239.31;;;3.72;100.00
51781;BME280;37844;57.126;24.288;2023-02-13T03:34:02;102244.81;;;3.78;100.00
51781;BME280;37844;57.126;24.288;2023-02-13T03:36:32;102242.78;;;3.73;100.00
51781;BME280;37844;57.126;24.288;2023-02-13T03:39:28;102239.13;;;3.69;100.00
51781;BME280;37844;57.126;24.288;2023-02-13T03:46:52;102241.75;;;3.57;100.00
51781;BME280;37844;57.126;24.288;2023-02-13T03:49:24;102236.09;;;3.61;100.00
51781;BME280;37844;57.126;24.288;2023-02-13T03:52:31;102240.00;;;3.56;100.00
51781;BME280;37844;57.126;24.288;2023-02-13T03:54:55;102233.72;;;3.65;100.00
51781;BME280;37844;57.126;24.288;2023-02-13T03:57:41;102222.34;;;3.59;100.00
51781;BME280;37844;57.126;24.288;2023-02-13T04:00:26;102227.53;;;3.48;100.00
51781;BME280;37844;57.126;24.288;2023-02-13T04:02:57;102223.53;;;3.51;100.00
51781;BME280;37844;57.126;24.288;2023-02-13T04:05:24;102223.72;;;3.54;100.00
51781;BME280;37844;57.126;24.288;2023-02-13T04:07:50;102219.91;;;3.61;100.00
51781;BME280;37844;57.126;24.288;2023-02-13T04:10:16;102217.44;;;3.49;100.00
51781;BME280;37844;57.126;24.288;2023-02-13T04:12:47;102215.47;;;3.45;100.00
51781;BME280;37844;57.126;24.288;2023-02-13T04:15:19;102214.59;;;3.45;100.00
51781;BME280;37844;57.126;24.288;2023-02-13T04:17:50;102217.53;;;3.51;100.00
51781;BME280;37844;57.126;24.288;2023-02-13T04:20:17;102212.50;;;3.39;100.00
51781;BME280;37844;57.126;24.288;2023-02-13T04:22:43;102207.31;;;3.37;100.00
51781;BME280;37844;57.126;24.288;2023-02-13T04:25:10;102210.94;;;3.41;100.00
51781;BME280;37844;57.126;24.288;2023-02-13T04:27:36;102214.19;;;3.38;100.00
51781;BME280;37844;57.126;24.288;2023-02-13T04:30:02;102217.28;;;3.34;100.00
51781;BME280;37844;57.126;24.288;2023-02-13T04:32:27;102213.50;;;3.28;100.00
51781;BME280;37844;57.126;24.288;2023-02-13T04:34:53;102206.59;;;3.13;100.00
51781;BME280;37844;57.126;24.288;2023-02-13T04:37:18;102212.94;;;3.07;100.00
51781;BME280;37844;57.126;24.288;2023-02-13T04:39:43;102215.91;;;3.26;100.00
51781;BME280;37844;57.126;24.288;2023-02-13T04:42:09;102215.44;;;3.32;100.00
51781;BME280;37844;57.126;24.288;2023-02-13T04:44:34;102212.91;;;3.45;100.00
51781;BME280;37844;57.126;24.288;2023-02-13T04:46:59;102216.25;;;3.57;100.00
51781;BME280;37844;57.126;24.288;2023-02-13T04:49:25;102215.19;;;3.54;100.00
51781;BME280;37844;57.126;24.288;2023-02-13T04:51:50;102213.03;;;3.60;100.00
51781;BME280;37844;57.126;24.288;2023-02-13T04:54:15;102214.59;;;3.58;100.00
51781;BME280;37844;57.126;24.288;2023-02-13T04:56:40;102204.50;;;3.59;100.00
51781;BME280;37844;57.126;24.288;2023-02-13T04:59:06;102205.78;;;3.39;100.00
51781;BME280;37844;57.126;24.288;2023-02-13T05:01:31;102205.84;;;3.41;100.00
51781;BME280;37844;57.126;24.288;2023-02-13T05:03:56;102203.41;;;3.43;100.00
51781;BME280;37844;57.126;24.288;2023-02-13T05:06:22;102200.06;;;3.30;100.00
51781;BME280;37844;57.126;24.288;2023-02-13T05:08:47;102199.56;;;3.36;100.00
51781;BME280;37844;57.126;24.288;2023-02-13T05:11:12;102200.06;;;3.30;100.00
51781;BME280;37844;57.126;24.288;2023-02-13T05:13:37;102202.38;;;3.27;100.00
51781;BME280;37844;57.126;24.288;2023-02-13T05:16:03;102194.09;;;3.43;100.00
51781;BME280;37844;57.126;24.288;2023-02-13T05:18:28;102199.00;;;3.40;100.00
51781;BME280;37844;57.126;24.288;2023-02-13T05:20:54;102203.41;;;3.43;100.00
51781;BME280;37844;57.126;24.288;2023-02-13T05:23:38;102203.78;;;3.49;100.00
51781;BME280;37844;57.126;24.288;2023-02-13T05:26:03;102201.53;;;3.53;100.00
51781;BME280;37844;57.126;24.288;2023-02-13T05:28:28;102199.38;;;3.46;100.00
51781;BME280;37844;57.126;24.288;2023-02-13T05:31:12;102196.94;;;3.48;100.00
51781;BME280;37844;57.126;24.288;2023-02-13T05:33:38;102200.75;;;3.41;100.00
51781;BME280;37844;57.126;24.288;2023-02-13T05:36:03;102199.06;;;3.28;100.00
51781;BME280;37844;57.126;24.288;2023-02-13T05:38:29;102193.97;;;3.28;100.00
51781;BME280;37844;57.126;24.288;2023-02-13T05:40:54;102188.81;;;3.40;100.00
51781;BME280;37844;57.126;24.288;2023-02-13T05:43:22;102195.97;;;3.32;100.00
51781;BME280;37844;57.126;24.288;2023-02-13T05:45:47;102189.66;;;3.27;100.00
51781;BME280;37844;57.126;24.288;2023-02-13T05:48:12;102189.44;;;3.24;100.00
51781;BME280;37844;57.126;24.288;2023-02-13T05:50:38;102193.25;;;3.17;100.00
51781;BME280;37844;57.126;24.288;2023-02-13T05:53:03;102205.69;;;3.13;100.00
51781;BME280;37844;57.126;24.288;2023-02-13T05:55:28;102198.03;;;3.13;100.00
51781;BME280;37844;57.126;24.288;2023-02-13T05:57:57;102199.72;;;3.12;100.00
51781;BME280;37844;57.126;24.288;2023-02-13T06:00:23;102197.22;;;3.01;100.00
51781;BME280;37844;57.126;24.288;2023-02-13T06:02:48;102193.81;;;3.00;100.00
51781;BME280;37844;57.126;24.288;2023-02-13T06:05:14;102189.78;;;3.04;100.00
51781;BME280;37844;57.126;24.288;2023-02-13T06:07:39;102184.59;;;3.02;100.00
51781;BME280;37844;57.126;24.288;2023-02-13T06:10:04;102190.06;;;2.95;100.00
51781;BME280;37844;57.126;24.288;2023-02-13T06:12:30;102194.13;;;3.05;100.00
51781;BME280;37844;57.126;24.288;2023-02-13T06:14:55;102202.38;;;3.14;100.00
51781;BME280;37844;57.126;24.288;2023-02-13T06:17:20;102203.75;;;3.22;100.00
51781;BME280;37844;57.126;24.288;2023-02-13T06:19:46;102222.50;;;3.36;100.00
51781;BME280;37844;57.126;24.288;2023-02-13T06:22:11;102209.38;;;3.43;100.00
51781;BME280;37844;57.126;24.288;2023-02-13T06:24:36;102218.63;;;3.54;100.00
51781;BME280;37844;57.126;24.288;2023-02-13T06:27:02;102215.66;;;3.48;100.00
51781;BME280;37844;57.126;24.288;2023-02-13T06:29:27;102226.75;;;3.62;100.00
51781;BME280;37844;57.126;24.288;2023-02-13T06:31:53;102232.56;;;3.59;100.00
51781;BME280;37844;57.126;24.288;2023-02-13T06:34:18;102231.84;;;3.62;100.00
51781;BME280;37844;57.126;24.288;2023-02-13T06:36:43;102228.94;;;3.69;100.00
51781;BME280;37844;57.126;24.288;2023-02-13T06:39:22;102228.66;;;3.78;100.00
51781;BME280;37844;57.126;24.288;2023-02-13T06:41:54;102238.34;;;3.83;100.00
51781;BME280;37844;57.126;24.288;2023-02-13T06:44:20;102234.63;;;3.78;100.00
51781;BME280;37844;57.126;24.288;2023-02-13T06:46:45;102256.19;;;3.83;100.00
51781;BME280;37844;57.126;24.288;2023-02-13T06:49:10;102243.84;;;3.90;100.00
51781;BME280;37844;57.126;24.288;2023-02-13T06:51:35;102238.25;;;3.95;100.00
51781;BME280;37844;57.126;24.288;2023-02-13T06:54:01;102233.81;;;3.79;100.00
51781;BME280;37844;57.126;24.288;2023-02-13T06:56:26;102226.56;;;3.72;100.00
51781;BME280;37844;57.126;24.288;2023-02-13T06:58:52;102217.84;;;3.69;100.00
51781;BME280;37844;57.126;24.288;2023-02-13T07:01:17;102220.59;;;3.58;100.00
51781;BME280;37844;57.126;24.288;2023-02-13T07:03:42;102217.63;;;3.52;100.00
51781;BME280;37844;57.126;24.288;2023-02-13T07:06:15;102211.84;;;3.55;100.00
51781;BME280;37844;57.126;24.288;2023-02-13T07:08:41;102218.44;;;3.65;100.00
51781;BME280;37844;57.126;24.288;2023-02-13T07:11:06;102212.75;;;3.69;100.00
51781;BME280;37844;57.126;24.288;2023-02-13T07:13:31;102208.72;;;3.72;100.00
51781;BME280;37844;57.126;24.288;2023-02-13T07:15:59;102200.09;;;3.70;100.00
51781;BME280;37844;57.126;24.288;2023-02-13T07:18:25;102196.28;;;3.64;100.00
51781;BME280;37844;57.126;24.288;2023-02-13T07:20:50;102202.03;;;3.74;100.00
51781;BME280;37844;57.126;24.288;2023-02-13T07:23:16;102206.75;;;3.81;100.00
51781;BME280;37844;57.126;24.288;2023-02-13T07:25:42;102207.44;;;3.92;100.00
51781;BME280;37844;57.126;24.288;2023-02-13T07:28:08;102204.50;;;3.99;100.00
51781;BME280;37844;57.126;24.288;2023-02-13T07:30:33;102225.09;;;4.02;100.00
51781;BME280;37844;57.126;24.288;2023-02-13T07:32:59;102213.91;;;4.00;100.00
51781;BME280;37844;57.126;24.288;2023-02-13T07:35:25;102205.09;;;4.09;100.00
51781;BME280;37844;57.126;24.288;2023-02-13T07:37:52;102190.44;;;4.19;100.00
51781;BME280;37844;57.126;24.288;2023-02-13T07:40:17;102184.16;;;4.14;100.00
51781;BME280;37844;57.126;24.288;2023-02-13T07:42:42;102177.72;;;4.06;100.00
51781;BME280;37844;57.126;24.288;2023-02-13T07:45:08;102188.50;;;4.15;100.00
51781;BME280;37844;57.126;24.288;2023-02-13T07:47:33;102184.97;;;4.13;100.00
51781;BME280;37844;57.126;24.288;2023-02-13T07:50:00;102191.66;;;4.39;100.00
51781;BME280;37844;57.126;24.288;2023-02-13T07:52:25;102203.69;;;4.55;100.00
51781;BME280;37844;57.126;24.288;2023-02-13T07:54:51;102210.19;;;4.78;100.00
51781;BME280;37844;57.126;24.288;2023-02-13T07:57:16;102208.56;;;4.94;100.00
51781;BME280;37844;57.126;24.288;2023-02-13T07:59:42;102213.69;;;5.08;100.00
51781;BME280;37844;57.126;24.288;2023-02-13T08:02:16;102204.78;;;5.02;100.00
51781;BME280;37844;57.126;24.288;2023-02-13T08:04:41;102188.91;;;5.07;100.00
51781;BME280;37844;57.126;24.288;2023-02-13T08:07:10;102191.03;;;5.15;100.00
51781;BME280;37844;57.126;24.288;2023-02-13T08:09:36;102177.03;;;5.23;100.00
51781;BME280;37844;57.126;24.288;2023-02-13T08:12:20;102174.19;;;5.48;100.00
51781;BME280;37844;57.126;24.288;2023-02-13T08:14:46;102168.94;;;5.76;100.00
51781;BME280;37844;57.126;24.288;2023-02-13T08:17:11;102176.13;;;6.13;100.00
51781;BME280;37844;57.126;24.288;2023-02-13T08:19:37;102181.19;;;6.61;100.00
51781;BME280;37844;57.126;24.288;2023-02-13T08:22:03;102187.31;;;6.97;100.00
51781;BME280;37844;57.126;24.288;2023-02-13T08:24:28;102184.38;;;7.23;100.00
51781;BME280;37844;57.126;24.288;2023-02-13T08:26:57;102184.34;;;7.40;100.00
51781;BME280;37844;57.126;24.288;2023-02-13T08:29:22;102181.50;;;7.52;100.00
51781;BME280;37844;57.126;24.288;2023-02-13T08:31:47;102184.44;;;7.59;100.00
51781;BME280;37844;57.126;24.288;2023-02-13T08:34:13;102185.47;;;7.81;100.00
51781;BME280;37844;57.126;24.288;2023-02-13T08:36:38;102178.59;;;7.99;100.00
51781;BME280;37844;57.126;24.288;2023-02-13T08:39:03;102176.16;;;8.20;100.00
51781;BME280;37844;57.126;24.288;2023-02-13T08:41:29;102175.34;;;8.78;100.00
51781;BME280;37844;57.126;24.288;2023-02-13T08:43:54;102158.38;;;9.03;100.00
51781;BME280;37844;57.126;24.288;2023-02-13T08:46:20;102147.53;;;9.31;100.00
51781;BME280;37844;57.126;24.288;2023-02-13T08:48:45;102152.41;;;9.25;100.00
51781;BME280;37844;57.126;24.288;2023-02-13T08:51:11;102149.66;;;9.20;100.00
51781;BME280;37844;57.126;24.288;2023-02-13T08:53:37;102142.53;;;9.77;100.00
51781;BME280;37844;57.126;24.288;2023-02-13T08:56:02;102146.50;;;9.48;100.00
51781;BME280;37844;57.126;24.288;2023-02-13T08:58:28;102137.63;;;9.19;100.00
51781;BME280;37844;57.126;24.288;2023-02-13T09:00:54;102149.78;;;9.02;100.00
51781;BME280;37844;57.126;24.288;2023-02-13T09:03:20;102159.38;;;8.85;100.00
51781;BME280;37844;57.126;24.288;2023-02-13T09:05:45;102152.13;;;8.38;100.00
51781;BME280;37844;57.126;24.288;2023-02-13T09:08:11;102150.72;;;8.44;100.00
51781;BME280;37844;57.126;24.288;2023-02-13T09:10:38;102147.09;;;8.21;100.00
51781;BME280;37844;57.126;24.288;2023-02-13T09:13:03;102159.75;;;7.99;100.00
51781;BME280;37844;57.126;24.288;2023-02-13T09:15:29;102157.59;;;7.89;100.00
51781;BME280;37844;57.126;24.288;2023-02-13T09:17:55;102142.94;;;7.68;100.00
51781;BME280;37844;57.126;24.288;2023-02-13T09:20:20;102152.19;;;7.64;100.00
51781;BME280;37844;57.126;24.288;2023-02-13T09:22:45;102147.53;;;7.75;100.00
51781;BME280;37844;57.126;24.288;2023-02-13T09:25:11;102142.59;;;7.98;100.00
51781;BME280;37844;57.126;24.288;2023-02-13T09:27:36;102127.47;;;8.04;100.00
51781;BME280;37844;57.126;24.288;2023-02-13T09:30:04;102122.31;;;8.04;100.00
51781;BME280;37844;57.126;24.288;2023-02-13T09:32:29;102130.13;;;8.43;100.00
51781;BME280;37844;57.126;24.288;2023-02-13T09:34:54;102136.47;;;8.91;100.00
51781;BME280;37844;57.126;24.288;2023-02-13T09:37:20;102136.50;;;9.12;100.00
51781;BME280;37844;57.126;24.288;2023-02-13T09:39:47;102126.00;;;9.29;100.00
51781;BME280;37844;57.126;24.288;2023-02-13T09:42:20;102119.66;;;9.42;100.00
51781;BME280;37844;57.126;24.288;2023-02-13T09:44:49;102117.09;;;9.00;100.00
51781;BME280;37844;57.126;24.288;2023-02-13T09:47:27;102116.56;;;8.66;100.00
51781;BME280;37844;57.126;24.288;2023-02-13T09:49:54;102104.31;;;8.22;100.00
51781;BME280;37844;57.126;24.288;2023-02-13T09:52:21;102097.69;;;8.27;100.00
51781;BME280;37844;57.126;24.288;2023-02-13T09:54:46;102106.47;;;8.13;100.00
51781;BME280;37844;57.126;24.288;2023-02-13T09:57:26;102121.25;;;7.99;100.00
51781;BME280;37844;57.126;24.288;2023-02-13T10:02:41;102118.34;;;7.73;100.00
51781;BME280;37844;57.126;24.288;2023-02-13T10:08:15;102128.41;;;7.69;100.00
51781;BME280;37844;57.126;24.288;2023-02-13T10:16:00;102112.91;;;7.48;100.00
51781;BME280;37844;57.126;24.288;2023-02-13T10:18:27;102103.16;;;7.40;100.00
51781;BME280;37844;57.126;24.288;2023-02-13T10:20:58;102107.31;;;7.94;100.00
51781;BME280;37844;57.126;24.288;2023-02-13T10:23:34;102103.84;;;8.31;100.00
51781;BME280;37844;57.126;24.288;2023-02-13T10:26:06;102095.34;;;8.51;100.00
51781;BME280;37844;57.126;24.288;2023-02-13T10:28:56;102102.44;;;8.57;100.00
51781;BME280;37844;57.126;24.288;2023-02-13T10:31:40;102088.28;;;8.47;100.00
51781;BME280;37844;57.126;24.288;2023-02-13T10:34:10;102085.59;;;8.44;100.00
51781;BME280;37844;57.126;24.288;2023-02-13T10:36:39;102095.22;;;8.48;100.00
51781;BME280;37844;57.126;24.288;2023-02-13T10:52:02;102078.66;;;8.41;100.00
51781;BME280;37844;57.126;24.288;2023-02-13T11:02:24;102059.09;;;9.06;100.00
51781;BME280;37844;57.126;24.288;2023-02-13T11:05:00;102060.53;;;9.00;100.00
51781;BME280;37844;57.126;24.288;2023-02-13T11:07:26;102055.28;;;9.19;100.00
51781;BME280;37844;57.126;24.288;2023-02-13T11:09:58;102050.34;;;9.24;100.00
51781;BME280;37844;57.126;24.288;2023-02-13T11:12:29;102042.44;;;8.98;100.00
51781;BME280;37844;57.126;24.288;2023-02-13T11:15:05;102047.97;;;8.86;100.00
51781;BME280;37844;57.126;24.288;2023-02-13T11:17:32;102048.16;;;8.91;100.00
51781;BME280;37844;57.126;24.288;2023-02-13T11:20:00;102052.44;;;8.90;100.00
51781;BME280;37844;57.126;24.288;2023-02-13T11:22:28;102048.63;;;9.02;100.00
51781;BME280;37844;57.126;24.288;2023-02-13T11:24:55;102044.56;;;9.08;100.00
51781;BME280;37844;57.126;24.288;2023-02-13T11:27:23;102036.81;;;9.07;100.00
51781;BME280;37844;57.126;24.288;2023-02-13T11:30:02;102026.34;;;9.02;100.00
51781;BME280;37844;57.126;24.288;2023-02-13T11:32:29;102019.84;;;9.12;100.00
51781;BME280;37844;57.126;24.288;2023-02-13T11:34:55;102010.03;;;9.02;100.00
51781;BME280;37844;57.126;24.288;2023-02-13T11:37:28;102013.00;;;8.90;100.00
51781;BME280;37844;57.126;24.288;2023-02-13T11:39:55;102016.56;;;8.94;100.00
51781;BME280;37844;57.126;24.288;2023-02-13T11:42:36;102016.84;;;8.80;100.00
51781;BME280;37844;57.126;24.288;2023-02-13T11:45:05;102014.34;;;8.82;100.00
51781;BME280;37844;57.126;24.288;2023-02-13T11:47:36;102016.44;;;8.69;100.00
51781;BME280;37844;57.126;24.288;2023-02-13T11:50:02;102019.38;;;8.58;100.00
51781;BME280;37844;57.126;24.288;2023-02-13T11:52:28;102023.94;;;8.44;100.00
51781;BME280;37844;57.126;24.288;2023-02-13T11:54:58;102006.16;;;8.29;100.00
51781;BME280;37844;57.126;24.288;2023-02-13T11:57:34;102000.53;;;8.38;100.00
51781;BME280;37844;57.126;24.288;2023-02-13T12:00:01;101992.44;;;8.28;100.00
51781;BME280;37844;57.126;24.288;2023-02-13T12:02:48;101987.63;;;8.36;100.00
51781;BME280;37844;57.126;24.288;2023-02-13T12:07:39;101986.91;;;8.19;100.00
51781;BME280;37844;57.126;24.288;2023-02-13T12:15:16;101991.19;;;8.19;100.00
51781;BME280;37844;57.126;24.288;2023-02-13T12:17:43;101999.06;;;8.23;100.00
51781;BME280;37844;57.126;24.288;2023-02-13T12:20:15;102000.88;;;8.06;100.00
51781;BME280;37844;57.126;24.288;2023-02-13T12:35:52;102041.44;;;7.75;100.00
51781;BME280;37844;57.126;24.288;2023-02-13T12:48:35;102018.97;;;7.51;100.00
51781;BME280;37844;57.126;24.288;2023-02-13T12:56:24;102047.00;;;6.93;100.00
51781;BME280;37844;57.126;24.288;2023-02-13T13:22:20;102031.28;;;6.51;100.00
51781;BME280;37844;57.126;24.288;2023-02-13T13:27:17;102048.50;;;6.37;100.00
51781;BME280;37844;57.126;24.288;2023-02-13T13:29:54;102046.94;;;6.41;100.00
51781;BME280;37844;57.126;24.288;2023-02-13T13:32:22;102043.69;;;6.43;100.00
51781;BME280;37844;57.126;24.288;2023-02-13T13:34:48;102052.25;;;6.44;100.00
51781;BME280;37844;57.126;24.288;2023-02-13T13:37:31;102054.31;;;6.51;100.00
51781;BME280;37844;57.126;24.288;2023-02-13T13:40:02;102056.66;;;6.46;100.00
51781;BME280;37844;57.126;24.288;2023-02-13T13:45:21;102041.13;;;6.43;100.00
51781;BME280;37844;57.126;24.288;2023-02-13T13:50:19;102040.72;;;6.35;100.00
51781;BME280;37844;57.126;24.288;2023-02-13T13:58:20;102041.16;;;6.10;100.00
51781;BME280;37844;57.126;24.288;2023-02-13T14:00:47;102029.09;;;6.08;100.00
51781;BME280;37844;57.126;24.288;2023-02-13T14:03:35;102024.75;;;6.07;100.00
51781;BME280;37844;57.126;24.288;2023-02-13T14:06:02;102022.38;;;6.10;100.00
51781;BME280;37844;57.126;24.288;2023-02-13T14:11:25;102004.84;;;6.01;100.00
51781;BME280;37844;57.126;24.288;2023-02-13T14:13:51;102018.81;;;5.91;100.00
51781;BME280;37844;57.126;24.288;2023-02-13T14:19:01;102027.38;;;5.92;100.00
51781;BME280;37844;57.126;24.288;2023-02-13T14:21:26;102021.19;;;5.88;100.00
51781;BME280;37844;57.126;24.288;2023-02-13T14:23:52;102021.91;;;5.86;100.00
51781;BME280;37844;57.126;24.288;2023-02-13T14:26:19;102031.13;;;5.82;100.00
51781;BME280;37844;57.126;24.288;2023-02-13T14:36:21;102034.28;;;5.62;100.00
51781;BME280;37844;57.126;24.288;2023-02-13T14:38:54;102039.50;;;5.63;100.00
51781;BME280;37844;57.126;24.288;2023-02-13T14:44:03;102021.47;;;5.45;100.00
51781;BME280;37844;57.126;24.288;2023-02-13T14:46:33;102011.53;;;5.35;100.00
51781;BME280;37844;57.126;24.288;2023-02-13T14:49:05;102006.16;;;5.30;100.00
51781;BME280;37844;57.126;24.288;2023-02-13T14:51:39;101984.91;;;5.15;100.00
51781;BME280;37844;57.126;24.288;2023-02-13T14:54:13;101998.31;;;5.11;100.00
51781;BME280;37844;57.126;24.288;2023-02-13T14:56:40;102005.34;;;5.00;100.00
51781;BME280;37844;57.126;24.288;2023-02-13T14:59:09;102000.63;;;4.92;100.00
51781;BME280;37844;57.126;24.288;2023-02-13T15:01:40;102005.34;;;5.00;100.00
51781;BME280;37844;57.126;24.288;2023-02-13T15:04:10;102012.34;;;4.88;100.00
51781;BME280;37844;57.126;24.288;2023-02-13T15:06:40;102009.34;;;4.80;100.00
51781;BME280;37844;57.126;24.288;2023-02-13T15:09:21;102008.03;;;4.72;100.00
51781;BME280;37844;57.126;24.288;2023-02-13T15:11:48;102021.16;;;4.63;100.00
51781;BME280;37844;57.126;24.288;2023-02-13T15:14:14;102020.81;;;4.57;100.00
51781;BME280;37844;57.126;24.288;2023-02-13T15:16:40;102027.22;;;4.51;100.00
51781;BME280;37844;57.126;24.288;2023-02-13T15:19:10;102025.09;;;4.43;100.00
51781;BME280;37844;57.126;24.288;2023-02-13T15:21:38;102028.56;;;4.44;100.00
51781;BME280;37844;57.126;24.288;2023-02-13T15:24:03;102034.44;;;4.43;100.00
51781;BME280;37844;57.126;24.288;2023-02-13T15:26:29;102040.94;;;4.38;100.00
51781;BME280;37844;57.126;24.288;2023-02-13T15:28:59;102044.47;;;4.25;100.00